createdAt,value
2018-08-25T00:00:42.245Z,99682.34
2018-08-25T00:03:10.654Z,99673.54
2018-08-25T00:05:39.076Z,99676.55
2018-08-25T00:08:07.509Z,99680.61
2018-08-25T00:10:35.966Z,99668.89
2018-08-25T00:13:04.404Z,99662.19
2018-08-25T00:15:32.845Z,99652.46
2018-08-25T00:18:01.238Z,99649.59
2018-08-25T00:20:29.666Z,99652.56
2018-08-25T00:22:58.086Z,99653.42
2018-08-25T00:25:26.540Z,99647.09
2018-08-25T00:27:54.965Z,99642.27
2018-08-25T00:30:28.689Z,99631.92
2018-08-25T00:32:57.100Z,99629.50
2018-08-25T00:35:25.553Z,99624.62
2018-08-25T00:37:54.014Z,99621.10
2018-08-25T00:40:22.465Z,99621.38
2018-08-25T00:42:50.896Z,99620.70
2018-08-25T00:45:19.345Z,99617.73
2018-08-25T00:47:47.876Z,99622.24
2018-08-25T00:50:16.258Z,99618.14
2018-08-25T00:52:44.715Z,99611.34
2018-08-25T00:55:13.326Z,99616.00
2018-08-25T00:57:41.725Z,99609.98
2018-08-25T01:00:10.189Z,99596.50
2018-08-25T01:02:38.631Z,99601.30
2018-08-25T01:05:07.241Z,99607.17
2018-08-25T01:07:35.693Z,99600.03
2018-08-25T01:10:04.178Z,99589.48
2018-08-25T01:12:32.578Z,99592.80
2018-08-25T01:15:00.981Z,99590.26
2018-08-25T01:17:29.405Z,99582.19
2018-08-25T01:19:57.821Z,99579.36
2018-08-25T01:22:26.274Z,99585.96
2018-08-25T01:24:54.713Z,99585.66
2018-08-25T01:27:23.121Z,99581.13
2018-08-25T01:29:51.550Z,99580.23
2018-08-25T01:32:19.933Z,99570.14
2018-08-25T01:34:48.576Z,99564.41
2018-08-25T01:37:16.987Z,99551.09
2018-08-25T01:39:45.413Z,99559.06
2018-08-25T01:42:13.797Z,99558.02
2018-08-25T01:44:42.219Z,99554.89
2018-08-25T01:47:10.705Z,99558.33
2018-08-25T01:49:39.169Z,99548.30
2018-08-25T01:52:07.679Z,99546.97
2018-08-25T01:54:36.120Z,99543.42
2018-08-25T01:57:04.578Z,99536.26
2018-08-25T01:59:33.118Z,99537.20
2018-08-25T02:02:01.543Z,99527.13
2018-08-25T02:04:29.937Z,99525.50
2018-08-25T02:06:58.375Z,99525.26
2018-08-25T02:09:26.738Z,99526.44
2018-08-25T02:11:55.101Z,99526.71
2018-08-25T02:14:23.456Z,99514.28
2018-08-25T02:16:51.909Z,99524.98
2018-08-25T02:19:20.286Z,99521.75
2018-08-25T02:21:48.661Z,99520.89
2018-08-25T02:24:17.110Z,99512.73
2018-08-25T02:26:45.487Z,99511.72
2018-08-25T02:29:13.864Z,99512.95
2018-08-25T02:31:42.284Z,99501.52
2018-08-25T02:34:10.645Z,99503.20
2018-08-25T02:36:39.066Z,99504.76
2018-08-25T02:39:11.335Z,99498.32
2018-08-25T02:41:39.755Z,99497.56
2018-08-25T02:44:08.125Z,99507.03
2018-08-25T02:46:36.606Z,99501.03
2018-08-25T02:49:05.108Z,99505.22
2018-08-25T02:51:33.492Z,99508.42
2018-08-25T02:54:01.849Z,99507.90
2018-08-25T02:56:30.226Z,99503.27
2018-08-25T02:58:58.577Z,99505.87
2018-08-25T03:01:26.966Z,99507.95
2018-08-25T03:03:55.314Z,99506.03
2018-08-25T03:06:23.713Z,99505.83
2018-08-25T03:08:52.070Z,99501.77
2018-08-25T03:11:20.472Z,99505.05
2018-08-25T03:13:48.955Z,99497.34
2018-08-25T03:16:17.266Z,99495.08
2018-08-25T03:18:45.690Z,99488.57
2018-08-25T03:21:14.090Z,99489.69
2018-08-25T03:23:42.457Z,99491.13
2018-08-25T03:26:10.854Z,99492.52
2018-08-25T03:28:39.217Z,99486.07
2018-08-25T03:31:07.617Z,99488.52
2018-08-25T03:33:35.968Z,99477.66
2018-08-25T03:36:04.365Z,99489.75
2018-08-25T03:38:32.760Z,99486.88
2018-08-25T03:41:01.154Z,99484.74
2018-08-25T03:43:29.507Z,99478.83
2018-08-25T03:45:57.933Z,99470.98
2018-08-25T03:48:26.285Z,99472.83
2018-08-25T03:50:54.694Z,99470.68
2018-08-25T03:53:23.041Z,99464.00
2018-08-25T03:55:51.457Z,99458.63
2018-08-25T03:58:19.862Z,99449.20
2018-08-25T04:00:48.281Z,99450.63
2018-08-25T04:03:16.714Z,99448.11
2018-08-25T04:05:45.188Z,99445.17
2018-08-25T04:08:13.625Z,99452.55
2018-08-25T04:10:42.100Z,99439.20
2018-08-25T04:13:10.573Z,99445.17
2018-08-25T04:15:38.979Z,99450.81
2018-08-25T04:18:07.398Z,99447.55
2018-08-25T04:20:35.818Z,99444.05
2018-08-25T04:23:04.262Z,99449.23
2018-08-25T04:25:32.665Z,99444.57
2018-08-25T04:28:01.088Z,99439.91
2018-08-25T04:30:29.517Z,99440.95
2018-08-25T04:32:57.963Z,99441.46
2018-08-25T04:35:26.341Z,99439.04
2018-08-25T04:37:54.735Z,99439.94
2018-08-25T04:40:23.143Z,99447.03
2018-08-25T04:42:51.611Z,99443.02
2018-08-25T04:45:20.001Z,99446.31
2018-08-25T04:47:48.406Z,99450.48
2018-08-25T04:50:16.782Z,99451.52
2018-08-25T04:52:45.206Z,99455.58
2018-08-25T04:55:13.581Z,99454.78
2018-08-25T04:57:41.981Z,99469.52
2018-08-25T05:00:10.381Z,99468.80
2018-08-25T05:02:38.748Z,99476.81
2018-08-25T05:05:07.093Z,99472.68
2018-08-25T05:07:35.518Z,99482.59
2018-08-25T05:10:04.177Z,99484.92
2018-08-25T05:12:32.575Z,99486.00
2018-08-25T05:15:00.958Z,99494.75
2018-08-25T05:17:29.393Z,99497.72
2018-08-25T05:19:57.779Z,99502.91
2018-08-25T05:22:26.175Z,99496.89
2018-08-25T05:24:54.609Z,99500.45
2018-08-25T05:27:23.014Z,99505.02
2018-08-25T05:29:51.473Z,99508.81
2018-08-25T05:32:19.850Z,99515.36
2018-08-25T05:34:48.206Z,99523.55
2018-08-25T05:37:16.593Z,99506.17
2018-08-25T05:39:44.949Z,99511.63
2018-08-25T05:42:13.475Z,99512.25
2018-08-25T05:44:41.838Z,99514.92
2018-08-25T05:47:10.215Z,99520.45
2018-08-25T05:49:38.584Z,99519.94
2018-08-25T05:52:07.046Z,99518.08
2018-08-25T05:54:35.424Z,99524.36
2018-08-25T05:57:03.849Z,99529.53
2018-08-25T05:59:32.224Z,99527.89
2018-08-25T06:02:00.604Z,99536.57
2018-08-25T06:04:28.976Z,99536.33
2018-08-25T06:06:57.397Z,99541.17
2018-08-25T06:09:25.773Z,99532.19
2018-08-25T06:11:54.178Z,99528.16
2018-08-25T06:14:22.574Z,99540.11
2018-08-25T06:16:50.921Z,99539.61
2018-08-25T06:19:19.404Z,99544.80
2018-08-25T06:21:47.706Z,99554.55
2018-08-25T06:24:16.090Z,99558.91
2018-08-25T06:26:44.465Z,99562.40
2018-08-25T06:29:12.879Z,99563.45
2018-08-25T06:31:41.293Z,99558.23
2018-08-25T06:34:09.749Z,99558.52
2018-08-25T06:36:38.206Z,99561.24
2018-08-25T06:39:08.347Z,99556.32
2018-08-25T06:41:36.749Z,99560.11
2018-08-25T06:44:05.214Z,99561.14
2018-08-25T06:46:33.577Z,99569.48
2018-08-25T06:49:02.026Z,99569.38
2018-08-25T06:51:30.390Z,99563.38
2018-08-25T06:53:58.834Z,99571.03
2018-08-25T06:56:27.231Z,99584.91
2018-08-25T06:58:55.621Z,99592.23
2018-08-25T07:01:24.015Z,99589.56
2018-08-25T07:03:52.467Z,99538.63
2018-08-25T07:06:20.869Z,99599.21
2018-08-25T07:08:49.237Z,99597.53
2018-08-25T07:11:17.603Z,99600.45
2018-08-25T07:13:45.982Z,99604.55
2018-08-25T07:16:14.358Z,99592.48
2018-08-25T07:18:42.812Z,99601.06
2018-08-25T07:21:11.202Z,99610.95
2018-08-25T07:23:39.569Z,99609.40
2018-08-25T07:26:08.024Z,99609.24
2018-08-25T07:28:36.437Z,99600.28
2018-08-25T07:31:04.839Z,99610.47
2018-08-25T07:33:33.230Z,99623.69
2018-08-25T07:36:01.644Z,99614.51
2018-08-25T07:38:30.047Z,99614.45
2018-08-25T07:40:58.430Z,99617.16
2018-08-25T07:43:26.852Z,99611.86
2018-08-25T07:45:55.216Z,99603.66
2018-08-25T07:48:23.606Z,99599.66
2018-08-25T07:50:52.147Z,99626.27
2018-08-25T07:53:20.505Z,99621.36
2018-08-25T07:55:48.872Z,99629.98
2018-08-25T07:58:17.256Z,99643.57
2018-08-25T08:00:45.637Z,99627.36
2018-08-25T08:03:14.038Z,99639.26
2018-08-25T08:05:42.459Z,99630.31
2018-08-25T08:08:10.833Z,99629.38
2018-08-25T08:10:39.209Z,99624.39
2018-08-25T08:13:07.615Z,99619.12
2018-08-25T08:15:35.990Z,99630.71
2018-08-25T08:18:04.391Z,99616.48
2018-08-25T08:20:32.753Z,99634.93
2018-08-25T08:23:01.101Z,99611.94
2018-08-25T08:25:29.501Z,99618.67
2018-08-25T08:27:57.853Z,99625.10
2018-08-25T08:30:26.265Z,99626.74
2018-08-25T08:32:54.772Z,99628.98
2018-08-25T08:35:23.157Z,99651.31
2018-08-25T08:37:51.501Z,99638.51
2018-08-25T08:40:19.924Z,99641.97
2018-08-25T08:42:48.290Z,99650.61
2018-08-25T08:45:16.772Z,99663.84
2018-08-25T08:47:45.094Z,99662.62
2018-08-25T08:50:13.542Z,99668.54
2018-08-25T08:52:41.876Z,99674.83
2018-08-25T08:55:10.341Z,99680.59
2018-08-25T08:57:38.941Z,99677.91
2018-08-25T09:00:12.844Z,99678.58
2018-08-25T09:02:41.222Z,99680.64
2018-08-25T09:05:09.673Z,99678.45
2018-08-25T09:07:38.018Z,99677.32
2018-08-25T09:10:06.449Z,99685.38
2018-08-25T09:12:35.095Z,99682.44
2018-08-25T09:15:03.491Z,99680.20
2018-08-25T09:17:31.928Z,99667.19
2018-08-25T09:20:00.301Z,99694.36
2018-08-25T09:22:28.649Z,99691.46
2018-08-25T09:24:57.062Z,99686.29
2018-08-25T09:27:25.826Z,99684.66
2018-08-25T09:29:54.441Z,99688.64
2018-08-25T09:32:22.867Z,99678.59
2018-08-25T09:34:51.358Z,99694.50
2018-08-25T09:37:19.707Z,99701.23
2018-08-25T09:39:48.084Z,99707.59
2018-08-25T09:42:16.520Z,99718.22
2018-08-25T09:44:44.900Z,99697.53
2018-08-25T09:47:13.278Z,99721.63
2018-08-25T09:49:41.670Z,99704.45
2018-08-25T09:52:10.042Z,99720.40
2018-08-25T09:54:38.481Z,99719.89
2018-08-25T09:57:06.909Z,99709.06
2018-08-25T09:59:35.339Z,99710.47
2018-08-25T10:02:07.069Z,99727.23
2018-08-25T10:04:35.513Z,99727.61
2018-08-25T10:07:03.962Z,99732.37
2018-08-25T10:09:32.374Z,99727.05
2018-08-25T10:12:00.865Z,99726.88
2018-08-25T10:14:29.322Z,99731.99
2018-08-25T10:16:57.868Z,99735.94
2018-08-25T10:19:26.232Z,99735.05
2018-08-25T10:21:54.681Z,99742.70
2018-08-25T10:24:23.064Z,99744.16
2018-08-25T10:26:51.469Z,99749.94
2018-08-25T10:29:19.876Z,99741.07
2018-08-25T10:31:48.288Z,99740.25
2018-08-25T10:34:16.761Z,99732.93
2018-08-25T10:36:45.178Z,99728.57
2018-08-25T10:39:13.727Z,99721.86
2018-08-25T10:41:42.472Z,99726.52
2018-08-25T10:44:10.833Z,99725.30
2018-08-25T10:46:39.989Z,99732.14
2018-08-25T10:49:08.873Z,99728.34
2018-08-25T10:51:37.642Z,99735.17
2018-08-25T10:54:06.206Z,99737.39
2018-08-25T10:56:34.630Z,99720.51
2018-08-25T10:59:03.043Z,99730.14
2018-08-25T11:01:31.551Z,99747.68
2018-08-25T11:03:59.986Z,99733.89
2018-08-25T11:06:28.420Z,99744.66
2018-08-25T11:08:56.865Z,99724.19
2018-08-25T11:11:25.498Z,99736.22
2018-08-25T11:13:53.885Z,99717.40
2018-08-25T11:16:22.324Z,99724.33
2018-08-25T11:18:50.849Z,99745.08
2018-08-25T11:21:19.286Z,99738.27
2018-08-25T11:23:47.734Z,99749.48
2018-08-25T11:26:16.115Z,99737.97
2018-08-25T11:28:44.545Z,99742.00
2018-08-25T11:31:12.961Z,99745.61
2018-08-25T11:33:41.382Z,99739.92
2018-08-25T11:36:09.853Z,99740.03
2018-08-25T11:38:38.326Z,99749.41
2018-08-25T11:41:06.762Z,99743.70
2018-08-25T11:43:35.198Z,99742.52
2018-08-25T11:46:03.641Z,99739.05
2018-08-25T11:48:32.042Z,99737.88
2018-08-25T11:51:00.457Z,99739.45
2018-08-25T11:53:28.861Z,99742.03
2018-08-25T11:55:57.336Z,99732.45
2018-08-25T11:58:25.696Z,99730.94
2018-08-25T12:00:54.193Z,99735.45
2018-08-25T12:03:23.434Z,99747.92
2018-08-25T12:05:51.846Z,99752.25
2018-08-25T12:08:20.214Z,99739.90
2018-08-25T12:10:48.603Z,99729.91
2018-08-25T12:13:16.970Z,99740.75
2018-08-25T12:15:45.357Z,99740.56
2018-08-25T12:18:13.730Z,99727.39
2018-08-25T12:20:42.138Z,99737.94
2018-08-25T12:23:10.567Z,99721.16
2018-08-25T12:25:38.981Z,99739.63
2018-08-25T12:28:07.370Z,99740.57
2018-08-25T12:30:35.749Z,99735.19
2018-08-25T12:33:04.170Z,99737.55
2018-08-25T12:35:32.571Z,99735.58
2018-08-25T12:38:00.953Z,99734.87
2018-08-25T12:40:29.321Z,99727.20
2018-08-25T12:42:57.748Z,99732.93
2018-08-25T12:45:26.132Z,99719.20
2018-08-25T12:47:54.550Z,99723.95
2018-08-25T12:50:22.919Z,99726.58
2018-08-25T12:52:51.297Z,99746.08
2018-08-25T12:55:19.694Z,99754.04
2018-08-25T12:57:48.178Z,99755.44
2018-08-25T13:00:16.545Z,99768.40
2018-08-25T13:02:44.969Z,99761.73
2018-08-25T13:05:13.317Z,99776.72
2018-08-25T13:07:41.889Z,99766.31
2018-08-25T13:10:10.307Z,99769.82
2018-08-25T13:12:38.706Z,99782.55
2018-08-25T13:15:07.725Z,99767.84
2018-08-25T13:17:36.117Z,99762.11
2018-08-25T13:20:04.699Z,99771.75
2018-08-25T13:22:33.070Z,99772.05
2018-08-25T13:25:01.519Z,99766.56
2018-08-25T13:27:29.906Z,99767.74
2018-08-25T13:29:58.265Z,99767.36
2018-08-25T13:32:26.694Z,99772.54
2018-08-25T13:34:55.088Z,99776.34
2018-08-25T13:37:23.827Z,99779.60
2018-08-25T13:39:52.277Z,99773.50
2018-08-25T13:42:20.710Z,99768.00
2018-08-25T13:44:49.102Z,99775.75
2018-08-25T13:47:17.482Z,99770.12
2018-08-25T13:49:45.882Z,99772.97
2018-08-25T13:52:17.433Z,99769.20
2018-08-25T13:54:45.894Z,99771.16
2018-08-25T13:57:14.338Z,99773.48
2018-08-25T13:59:42.906Z,99779.26
2018-08-25T14:02:11.983Z,99778.11
2018-08-25T14:04:40.369Z,99778.78
2018-08-25T14:07:08.809Z,99775.24
2018-08-25T14:09:37.241Z,99775.85
2018-08-25T14:12:05.672Z,99775.96
2018-08-25T14:14:34.133Z,99779.13
2018-08-25T14:17:02.573Z,99780.15
2018-08-25T14:19:31.006Z,99779.05
2018-08-25T14:21:59.421Z,99780.23
2018-08-25T14:24:27.829Z,99783.16
2018-08-25T14:26:56.265Z,99785.89
2018-08-25T14:29:24.689Z,99814.50
2018-08-25T14:31:53.101Z,99816.08
2018-08-25T14:34:23.013Z,99829.50
2018-08-25T14:36:51.461Z,99827.33
2018-08-25T14:39:19.890Z,99819.30
2018-08-25T14:41:48.412Z,99823.91
2018-08-25T14:44:16.771Z,99830.42
2018-08-25T14:46:45.153Z,99838.52
2018-08-25T14:49:13.573Z,99846.61
2018-08-25T14:51:41.977Z,99832.98
2018-08-25T14:54:10.409Z,99851.45
2018-08-25T14:56:40.517Z,99852.44
2018-08-25T14:59:08.914Z,99861.50
2018-08-25T15:01:37.301Z,99860.02
2018-08-25T15:04:05.702Z,99864.08
2018-08-25T15:06:34.116Z,99861.30
2018-08-25T15:09:02.494Z,99860.38
2018-08-25T15:11:30.846Z,99868.80
2018-08-25T15:13:59.269Z,99859.89
2018-08-25T15:16:27.622Z,99867.08
2018-08-25T15:18:56.043Z,99873.39
2018-08-25T15:21:24.374Z,99873.38
2018-08-25T15:23:52.762Z,99875.46
2018-08-25T15:26:21.277Z,99876.23
2018-08-25T15:28:49.645Z,99877.65
2018-08-25T15:31:18.019Z,99894.20
2018-08-25T15:33:46.443Z,99890.03
2018-08-25T15:36:14.822Z,99891.84
2018-08-25T15:38:43.233Z,99904.44
2018-08-25T15:41:12.054Z,99908.53
2018-08-25T15:43:40.482Z,99911.66
2018-08-25T15:46:08.893Z,99911.38
2018-08-25T15:48:37.302Z,99908.48
2018-08-25T15:51:05.693Z,99914.03
2018-08-25T15:53:34.074Z,99919.03
2018-08-25T15:56:02.578Z,99916.91
2018-08-25T15:58:31.038Z,99925.11
2018-08-25T16:00:59.451Z,99926.81
2018-08-25T16:03:27.898Z,99933.17
2018-08-25T16:05:56.432Z,99932.13
2018-08-25T16:08:25.125Z,99919.95
2018-08-25T16:10:53.556Z,99921.34
2018-08-25T16:13:22.895Z,99916.41
2018-08-25T16:15:52.221Z,99918.59
2018-08-25T16:18:20.709Z,99920.48
2018-08-25T16:20:49.098Z,99917.73
2018-08-25T16:23:17.545Z,99923.88
2018-08-25T16:25:46.581Z,99925.61
2018-08-25T16:28:15.037Z,99932.41
2018-08-25T16:30:43.908Z,99926.77
2018-08-25T16:33:12.337Z,99933.70
2018-08-25T16:35:40.958Z,99925.20
2018-08-25T16:38:09.418Z,99930.95
2018-08-25T16:40:37.862Z,99929.88
2018-08-25T16:43:06.314Z,99926.91
2018-08-25T16:45:34.725Z,99935.30
2018-08-25T16:48:03.149Z,99933.97
2018-08-25T16:50:31.579Z,99931.06
2018-08-25T16:53:00.023Z,99936.77
2018-08-25T16:55:29.166Z,99940.70
2018-08-25T16:57:57.621Z,99933.13
2018-08-25T17:00:26.062Z,99941.00
2018-08-25T17:02:54.667Z,99944.57
2018-08-25T17:05:23.105Z,99948.22
2018-08-25T17:07:54.643Z,99942.75
2018-08-25T17:10:23.088Z,99947.65
2018-08-25T17:12:51.709Z,99944.86
2018-08-25T17:15:20.280Z,99951.06
2018-08-25T17:17:48.550Z,99963.88
2018-08-25T17:20:16.999Z,99950.81
2018-08-25T17:22:45.459Z,99960.12
2018-08-25T17:25:13.851Z,99956.98
2018-08-25T17:27:42.342Z,99949.33
2018-08-25T17:30:10.774Z,99957.59
2018-08-25T17:32:39.281Z,99964.23
2018-08-25T17:35:07.698Z,99963.12
2018-08-25T17:37:36.094Z,99972.72
2018-08-25T17:40:04.557Z,99967.25
2018-08-25T17:42:32.934Z,99976.61
2018-08-25T17:45:01.372Z,99975.77
2018-08-25T17:47:29.745Z,99979.89
2018-08-25T17:49:58.418Z,99989.50
2018-08-25T17:52:26.933Z,99989.19
2018-08-25T17:54:55.335Z,99986.55
2018-08-25T17:57:23.858Z,99990.52
2018-08-25T17:59:52.114Z,99992.98
2018-08-25T18:05:29.573Z,99997.73
2018-08-25T18:07:57.970Z,99992.59
2018-08-25T18:10:29.402Z,100001.06
2018-08-25T18:12:57.797Z,100008.72
2018-08-25T18:15:26.198Z,100006.06
2018-08-25T18:17:54.564Z,100003.34
2018-08-25T18:20:22.938Z,100007.69
2018-08-25T18:22:51.356Z,100012.06
2018-08-25T18:25:19.791Z,100012.36
2018-08-25T18:27:48.226Z,100014.59
2018-08-25T18:30:16.699Z,100019.78
2018-08-25T18:32:45.302Z,100020.59
2018-08-25T18:35:13.904Z,100028.27
2018-08-25T18:37:42.346Z,100034.82
2018-08-25T18:40:10.820Z,100032.13
2018-08-25T18:42:39.247Z,100033.79
2018-08-25T18:45:07.917Z,100037.34
2018-08-25T18:47:36.398Z,100046.87
2018-08-25T18:50:05.081Z,100045.80
2018-08-25T18:52:33.465Z,100049.63
2018-08-25T18:55:01.899Z,100055.36
2018-08-25T18:57:30.317Z,100061.63
2018-08-25T18:59:58.726Z,100060.78
2018-08-25T19:02:27.194Z,100057.54
2018-08-25T19:04:59.069Z,100065.65
2018-08-25T19:07:27.499Z,100062.67
2018-08-25T19:09:55.913Z,100066.20
2018-08-25T19:12:24.302Z,100065.91
2018-08-25T19:14:52.758Z,100073.55
2018-08-25T19:17:21.173Z,100075.45
2018-08-25T19:19:49.604Z,100078.45
2018-08-25T19:22:18.077Z,100071.91
2018-08-25T19:24:46.501Z,100081.16
2018-08-25T19:27:14.897Z,100088.49
2018-08-25T19:29:43.338Z,100082.77
2018-08-25T19:32:11.841Z,100083.58
2018-08-25T19:34:49.157Z,100086.83
2018-08-25T19:37:17.582Z,100085.19
2018-08-25T19:39:46.024Z,100088.47
2018-08-25T19:42:14.537Z,100092.23
2018-08-25T19:44:42.962Z,100088.41
2018-08-25T19:47:11.461Z,100088.14
2018-08-25T19:49:39.816Z,100085.66
2018-08-25T19:52:08.269Z,100100.03
2018-08-25T19:54:36.654Z,100093.20
2018-08-25T19:57:05.165Z,100100.52
2018-08-25T19:59:33.514Z,100102.97
2018-08-25T20:02:02.241Z,100103.53
2018-08-25T20:04:30.653Z,100109.23
2018-08-25T20:06:59.049Z,100109.77
2018-08-25T20:09:28.303Z,100107.56
2018-08-25T20:11:56.714Z,100111.64
2018-08-25T20:14:26.298Z,100108.94
2018-08-25T20:16:54.668Z,100112.97
2018-08-25T20:19:23.031Z,100123.52
2018-08-25T20:21:51.637Z,100118.31
2018-08-25T20:24:20.012Z,100121.78
2018-08-25T20:26:54.961Z,100130.97
2018-08-25T20:29:23.340Z,100131.75
2018-08-25T20:31:51.769Z,100131.67
2018-08-25T20:34:20.137Z,100136.55
2018-08-25T20:37:00.821Z,100137.59
2018-08-25T20:39:29.188Z,100140.28
2018-08-25T20:41:57.566Z,100141.06
2018-08-25T20:44:25.939Z,100143.17
2018-08-25T20:46:55.345Z,100143.15
2018-08-25T20:49:23.721Z,100148.84
2018-08-25T20:51:52.106Z,100152.59
2018-08-25T20:54:20.486Z,100152.36
2018-08-25T20:59:44.617Z,100152.06
2018-08-25T21:02:12.994Z,100159.44
2018-08-25T21:04:41.405Z,100148.31
2018-08-25T21:07:09.854Z,100150.76
2018-08-25T21:09:38.213Z,100155.66
2018-08-25T21:12:06.662Z,100158.69
2018-08-25T21:14:35.045Z,100163.03
2018-08-25T21:17:03.528Z,100157.86
2018-08-25T21:19:31.973Z,100155.15
2018-08-25T21:22:00.325Z,100160.58
2018-08-25T21:24:28.747Z,100158.55
2018-08-25T21:26:57.116Z,100164.33
2018-08-25T21:29:25.551Z,100166.39
2018-08-25T21:31:54.973Z,100168.45
2018-08-25T21:34:24.350Z,100174.50
2018-08-25T21:37:02.588Z,100168.18
2018-08-25T21:39:30.973Z,100169.44
2018-08-25T21:42:10.219Z,100167.58
2018-08-25T21:44:57.589Z,100173.13
2018-08-25T21:47:26.038Z,100168.11
2018-08-25T21:49:54.441Z,100170.62
2018-08-25T21:52:22.797Z,100178.45
2018-08-25T21:54:51.244Z,100176.23
2018-08-25T21:57:19.649Z,100173.52
2018-08-25T21:59:48.057Z,100178.06
2018-08-25T22:02:17.314Z,100175.96
2018-08-25T22:04:45.905Z,100179.94
2018-08-25T22:07:14.338Z,100177.45
2018-08-25T22:09:42.788Z,100177.66
2018-08-25T22:12:11.270Z,100179.81
2018-08-25T22:14:39.864Z,100178.72
2018-08-25T22:17:08.345Z,100174.05
2018-08-25T22:19:36.757Z,100180.38
2018-08-25T22:22:05.181Z,100177.05
2018-08-25T22:24:33.737Z,100178.32
2018-08-25T22:27:02.163Z,100184.00
2018-08-25T22:29:30.575Z,100186.05
2018-08-25T22:31:59.023Z,100184.81
2018-08-25T22:34:27.441Z,100188.20
2018-08-25T22:36:55.851Z,100188.20
2018-08-25T22:39:24.282Z,100188.00
2018-08-25T22:41:52.674Z,100186.19
2018-08-25T22:44:21.162Z,100186.23
2018-08-25T22:46:49.579Z,100189.98
2018-08-25T22:49:17.998Z,100182.66
2018-08-25T22:51:46.406Z,100188.11
2018-08-25T22:54:14.918Z,100188.06
2018-08-25T22:56:43.357Z,100186.03
2018-08-25T22:59:11.845Z,100188.27
2018-08-25T23:01:40.295Z,100196.29
2018-08-25T23:04:08.862Z,100193.69
2018-08-25T23:06:37.256Z,100191.12
2018-08-25T23:09:07.758Z,100194.26
2018-08-25T23:11:36.218Z,100192.43
2018-08-25T23:14:04.694Z,100191.18
2018-08-25T23:16:33.149Z,100191.95
2018-08-25T23:19:01.612Z,100198.22
2018-08-25T23:21:30.134Z,100202.48
2018-08-25T23:23:58.806Z,100202.27
2018-08-25T23:26:27.281Z,100204.41
2018-08-25T23:28:55.673Z,100207.05
2018-08-25T23:31:24.083Z,100205.95
2018-08-25T23:33:52.478Z,100205.47
2018-08-25T23:36:20.923Z,100206.39
2018-08-25T23:38:49.344Z,100203.00
2018-08-25T23:41:17.825Z,100208.93
2018-08-25T23:43:46.215Z,100202.17
2018-08-25T23:46:14.613Z,100206.06
2018-08-25T23:48:43.013Z,100209.31
2018-08-25T23:51:11.408Z,100204.81
2018-08-25T23:53:39.938Z,100203.52
2018-08-25T23:56:08.390Z,100201.28
2018-08-25T23:58:36.797Z,100207.05
